createdAt,value
2019-01-14T00:00:30.557Z,9.46
2019-01-14T00:03:01.999Z,9.44
2019-01-14T00:05:33.299Z,9.38
2019-01-14T00:08:04.283Z,9.24
2019-01-14T00:10:35.249Z,9.30
2019-01-14T00:13:06.493Z,9.26
2019-01-14T00:15:37.948Z,9.34
2019-01-14T00:18:09.347Z,9.20
2019-01-14T00:20:40.721Z,9.31
2019-01-14T00:23:11.779Z,9.47
2019-01-14T00:25:43.095Z,9.40
2019-01-14T00:28:14.504Z,9.37
2019-01-14T00:30:45.816Z,9.32
2019-01-14T00:33:16.803Z,9.39
2019-01-14T00:35:47.843Z,9.32
2019-01-14T00:38:19.153Z,9.29
2019-01-14T00:40:50.214Z,9.22
2019-01-14T00:43:21.539Z,9.20
2019-01-14T00:45:52.752Z,9.18
2019-01-14T00:48:23.989Z,9.18
2019-01-14T00:50:55.452Z,9.23
2019-01-14T00:53:27.546Z,9.24
2019-01-14T00:55:59.322Z,9.20
2019-01-14T00:58:30.676Z,9.20
2019-01-14T01:01:02.699Z,9.21
2019-01-14T01:03:33.928Z,9.19
2019-01-14T01:06:05.312Z,9.07
2019-01-14T01:08:37.043Z,9.11
2019-01-14T01:11:08.357Z,9.12
2019-01-14T01:13:39.585Z,9.18
2019-01-14T01:16:10.800Z,9.21
2019-01-14T01:18:41.862Z,9.27
2019-01-14T01:21:13.570Z,9.22
2019-01-14T01:23:44.553Z,9.24
2019-01-14T01:26:15.791Z,9.26
2019-01-14T01:28:48.467Z,9.22
2019-01-14T01:31:19.940Z,9.24
2019-01-14T01:33:51.490Z,9.23
2019-01-14T01:36:22.478Z,9.30
2019-01-14T01:38:53.534Z,9.24
2019-01-14T01:41:24.986Z,9.26
2019-01-14T01:43:56.517Z,9.16
2019-01-14T01:46:28.033Z,9.24
2019-01-14T01:48:59.266Z,9.20
2019-01-14T01:51:30.511Z,9.36
2019-01-14T01:54:02.223Z,9.23
2019-01-14T01:56:33.514Z,9.18
2019-01-14T01:59:04.856Z,9.15
2019-01-14T02:01:35.830Z,9.18
2019-01-14T02:04:07.142Z,9.13
2019-01-14T02:06:39.221Z,9.07
2019-01-14T02:11:50.138Z,9.07
2019-01-14T02:14:21.550Z,9.04
2019-01-14T02:16:52.994Z,9.03
2019-01-14T02:19:24.275Z,9.04
2019-01-14T02:21:55.567Z,9.01
2019-01-14T02:24:27.896Z,9.06
2019-01-14T02:26:59.246Z,9.10
2019-01-14T02:29:30.495Z,9.09
2019-01-14T02:32:01.549Z,9.12
2019-01-14T02:34:32.877Z,8.97
2019-01-14T02:37:04.088Z,8.95
2019-01-14T02:39:35.421Z,8.97
2019-01-14T02:42:06.543Z,8.95
2019-01-14T02:44:38.139Z,8.94
2019-01-14T02:47:09.208Z,8.95
2019-01-14T02:49:40.198Z,8.80
2019-01-14T02:52:11.190Z,8.89
2019-01-14T02:54:42.167Z,8.98
2019-01-14T02:57:13.664Z,9.02
2019-01-14T02:59:44.990Z,8.97
2019-01-14T03:02:15.960Z,8.98
2019-01-14T03:04:47.598Z,8.96
2019-01-14T03:07:18.638Z,8.93
2019-01-14T03:09:49.617Z,8.90
2019-01-14T03:12:20.729Z,9.09
2019-01-14T03:14:51.975Z,9.01
2019-01-14T03:17:23.360Z,8.84
2019-01-14T03:19:55.173Z,8.73
2019-01-14T03:22:26.636Z,8.80
2019-01-14T03:24:58.144Z,8.85
2019-01-14T03:27:29.223Z,8.77
2019-01-14T03:30:00.471Z,8.78
2019-01-14T03:32:32.019Z,8.75
2019-01-14T03:35:03.672Z,8.75
2019-01-14T03:37:35.119Z,8.78
2019-01-14T03:40:10.314Z,8.70
2019-01-14T03:42:41.431Z,8.63
2019-01-14T03:45:13.107Z,8.99
2019-01-14T03:47:44.323Z,8.74
2019-01-14T03:50:20.744Z,8.68
2019-01-14T03:52:52.145Z,8.71
2019-01-14T03:55:23.618Z,8.72
2019-01-14T03:57:54.930Z,8.76
2019-01-14T04:00:26.857Z,8.78
2019-01-14T04:02:57.826Z,8.85
2019-01-14T04:05:29.042Z,8.80
2019-01-14T04:08:00.013Z,8.92
2019-01-14T04:10:31.361Z,8.92
2019-01-14T04:13:03.566Z,8.78
2019-01-14T04:15:34.636Z,8.74
2019-01-14T04:18:06.190Z,8.61
2019-01-14T04:20:37.174Z,8.72
2019-01-14T04:23:08.487Z,8.73
2019-01-14T04:25:39.770Z,8.63
2019-01-14T04:28:11.068Z,8.71
2019-01-14T04:30:42.047Z,8.73
2019-01-14T04:33:13.100Z,8.78
2019-01-14T04:35:44.177Z,8.72
2019-01-14T04:38:15.443Z,8.69
2019-01-14T04:40:46.836Z,8.62
2019-01-14T04:43:18.450Z,8.64
2019-01-14T04:45:49.682Z,8.51
2019-01-14T04:48:21.199Z,8.55
2019-01-14T04:50:52.355Z,8.56
2019-01-14T04:53:23.386Z,8.50
2019-01-14T04:55:54.727Z,8.55
2019-01-14T04:58:26.750Z,8.65
2019-01-14T05:00:58.335Z,8.75
2019-01-14T05:03:29.310Z,8.70
2019-01-14T05:06:01.007Z,8.67
2019-01-14T05:08:32.337Z,8.64
2019-01-14T05:11:04.029Z,8.70
2019-01-14T05:13:35.322Z,8.73
2019-01-14T05:16:06.470Z,8.77
2019-01-14T05:18:37.492Z,8.65
2019-01-14T05:21:08.891Z,8.67
2019-01-14T05:23:39.947Z,8.69
2019-01-14T05:26:10.925Z,8.66
2019-01-14T05:28:42.244Z,8.61
2019-01-14T05:31:13.390Z,8.69
2019-01-14T05:33:44.637Z,8.58
2019-01-14T05:36:15.817Z,8.69
2019-01-14T05:38:46.796Z,8.59
2019-01-14T05:41:17.793Z,8.64
2019-01-14T05:43:49.077Z,8.73
2019-01-14T05:46:20.059Z,8.82
2019-01-14T05:48:51.901Z,8.82
2019-01-14T05:51:22.968Z,8.81
2019-01-14T05:53:54.599Z,8.80
2019-01-14T05:56:25.850Z,8.75
2019-01-14T05:58:56.810Z,8.84
2019-01-14T06:01:28.426Z,8.48
2019-01-14T06:03:59.479Z,8.58
2019-01-14T06:06:30.759Z,8.62
2019-01-14T06:09:01.737Z,8.55
2019-01-14T06:11:33.647Z,8.59
2019-01-14T06:14:04.862Z,8.64
2019-01-14T06:16:35.915Z,8.57
2019-01-14T06:19:07.042Z,8.49
2019-01-14T06:21:38.030Z,8.52
2019-01-14T06:24:09.247Z,8.51
2019-01-14T06:26:40.302Z,8.43
2019-01-14T06:29:11.346Z,8.43
2019-01-14T06:31:42.663Z,8.37
2019-01-14T06:34:13.704Z,8.60
2019-01-14T06:36:44.686Z,8.52
2019-01-14T06:39:15.840Z,8.51
2019-01-14T06:41:47.559Z,8.47
2019-01-14T06:44:19.071Z,8.37
2019-01-14T06:46:50.372Z,8.24
2019-01-14T06:49:21.413Z,8.34
2019-01-14T06:51:52.684Z,8.16
2019-01-14T06:54:24.392Z,8.23
2019-01-14T06:56:55.372Z,8.11
2019-01-14T06:59:26.535Z,8.16
2019-01-14T07:01:57.837Z,8.29
2019-01-14T07:04:29.328Z,8.23
2019-01-14T07:07:00.462Z,8.24
2019-01-14T07:09:31.926Z,8.18
2019-01-14T07:12:04.037Z,8.21
2019-01-14T07:14:35.415Z,8.07
2019-01-14T07:17:06.578Z,8.16
2019-01-14T07:19:37.793Z,8.25
2019-01-14T07:22:08.851Z,8.06
2019-01-14T07:24:39.896Z,8.01
2019-01-14T07:27:11.220Z,8.07
2019-01-14T07:29:42.254Z,8.02
2019-01-14T07:32:13.617Z,8.05
2019-01-14T07:34:44.850Z,8.11
2019-01-14T07:37:17.108Z,8.10
2019-01-14T07:39:48.086Z,7.94
2019-01-14T07:42:19.317Z,7.97
2019-01-14T07:44:50.370Z,8.09
2019-01-14T07:47:22.213Z,8.03
2019-01-14T07:49:53.832Z,8.16
2019-01-14T07:52:25.112Z,7.89
2019-01-14T07:54:56.492Z,7.94
2019-01-14T07:57:27.482Z,7.81
2019-01-14T08:00:00.009Z,7.96
2019-01-14T08:02:31.870Z,8.01
2019-01-14T08:05:03.753Z,7.94
2019-01-14T08:07:35.046Z,8.04
2019-01-14T08:10:07.628Z,8.04
2019-01-14T08:12:38.997Z,8.02
2019-01-14T08:15:13.242Z,7.93
2019-01-14T08:17:44.493Z,8.19
2019-01-14T08:20:16.012Z,8.19
2019-01-14T08:22:47.748Z,8.09
2019-01-14T08:25:18.868Z,8.28
2019-01-14T08:27:49.959Z,8.24
2019-01-14T08:30:23.427Z,8.19
2019-01-14T08:32:54.781Z,8.22
2019-01-14T08:35:28.074Z,8.20
2019-01-14T08:37:59.125Z,8.22
2019-01-14T08:40:30.668Z,7.99
2019-01-14T08:43:01.644Z,8.21
2019-01-14T08:45:32.883Z,8.16
2019-01-14T08:48:04.119Z,8.24
2019-01-14T08:50:35.237Z,8.35
2019-01-14T08:53:06.936Z,8.21
2019-01-14T08:55:38.359Z,8.38
2019-01-14T08:58:09.693Z,8.38
2019-01-14T09:00:41.174Z,8.19
2019-01-14T09:03:12.504Z,8.29
2019-01-14T09:05:44.315Z,8.50
2019-01-14T09:08:16.115Z,8.32
2019-01-14T09:10:47.293Z,8.46
2019-01-14T09:13:18.445Z,8.53
2019-01-14T09:15:50.054Z,8.69
2019-01-14T09:18:21.198Z,8.59
2019-01-14T09:20:52.857Z,8.68
2019-01-14T09:23:24.273Z,8.78
2019-01-14T09:25:55.559Z,8.67
2019-01-14T09:28:27.628Z,8.72
2019-01-14T09:30:58.679Z,8.64
2019-01-14T09:33:29.741Z,8.71
2019-01-14T09:36:00.796Z,8.55
2019-01-14T09:38:35.839Z,8.64
2019-01-14T09:41:05.056Z,8.55
2019-01-14T09:43:36.792Z,8.60
2019-01-14T09:46:08.721Z,8.69
2019-01-14T09:48:39.851Z,8.66
2019-01-14T09:51:12.035Z,8.61
2019-01-14T09:53:43.253Z,8.81
2019-01-14T09:56:14.217Z,8.58
2019-01-14T09:58:45.852Z,8.48
2019-01-14T10:01:16.816Z,8.61
2019-01-14T10:03:48.441Z,8.64
2019-01-14T10:06:19.665Z,8.72
2019-01-14T10:08:50.894Z,8.65
2019-01-14T10:11:22.057Z,8.62
2019-01-14T10:13:53.293Z,8.53
2019-01-14T10:16:24.266Z,8.47
2019-01-14T10:18:56.143Z,8.41
2019-01-14T10:21:27.112Z,8.54
2019-01-14T10:23:58.342Z,8.55
2019-01-14T10:26:29.449Z,8.54
2019-01-14T10:29:00.718Z,8.53
2019-01-14T10:31:32.481Z,8.58
2019-01-14T10:34:03.467Z,8.69
2019-01-14T10:36:34.581Z,8.61
2019-01-14T10:39:08.142Z,8.60
2019-01-14T10:41:39.363Z,8.47
2019-01-14T10:44:10.739Z,8.57
2019-01-14T10:46:42.106Z,8.47
2019-01-14T10:49:13.228Z,8.68
2019-01-14T10:51:44.273Z,8.55
2019-01-14T10:54:16.805Z,8.48
2019-01-14T10:56:48.238Z,8.36
2019-01-14T10:59:19.458Z,8.15
2019-01-14T11:01:52.430Z,8.30
2019-01-14T11:04:23.974Z,8.32
2019-01-14T11:06:56.051Z,8.37
2019-01-14T11:09:27.666Z,8.33
2019-01-14T11:11:58.907Z,8.32
2019-01-14T11:14:30.197Z,8.39
2019-01-14T11:17:01.409Z,8.26
2019-01-14T11:19:32.927Z,8.21
2019-01-14T11:22:04.057Z,8.34
2019-01-14T11:24:50.324Z,8.32
2019-01-14T11:27:23.002Z,8.32
2019-01-14T11:29:54.876Z,8.12
2019-01-14T11:32:26.995Z,8.25
2019-01-14T11:34:58.077Z,8.35
2019-01-14T11:37:29.044Z,8.37
2019-01-14T11:40:00.690Z,8.28
2019-01-14T11:42:31.737Z,8.31
2019-01-14T11:45:03.271Z,8.43
2019-01-14T11:47:37.742Z,8.39
2019-01-14T11:50:12.170Z,8.43
2019-01-14T11:52:43.575Z,8.51
2019-01-14T11:55:14.711Z,8.54
2019-01-14T11:57:46.856Z,8.26
2019-01-14T12:00:22.202Z,8.32
2019-01-14T12:02:53.522Z,8.49
2019-01-14T12:05:25.110Z,8.30
2019-01-14T12:07:56.174Z,8.42
2019-01-14T12:10:27.687Z,8.45
2019-01-14T12:12:58.958Z,8.60
2019-01-14T12:15:30.483Z,8.28
2019-01-14T12:18:01.779Z,8.32
2019-01-14T12:20:32.976Z,8.29
2019-01-14T12:23:04.305Z,8.22
2019-01-14T12:25:35.920Z,8.32
2019-01-14T12:28:07.875Z,8.35
2019-01-14T12:30:41.762Z,8.36
2019-01-14T12:33:13.191Z,8.52
2019-01-14T12:35:44.788Z,8.53
2019-01-14T12:38:17.399Z,8.71
2019-01-14T12:40:48.441Z,8.80
2019-01-14T12:43:20.304Z,8.83
2019-01-14T12:45:51.251Z,8.83
2019-01-14T12:48:22.860Z,8.94
2019-01-14T12:50:53.931Z,9.05
2019-01-14T12:53:25.549Z,9.26
2019-01-14T12:55:56.811Z,9.31
2019-01-14T12:58:28.056Z,9.52
2019-01-14T13:00:59.038Z,9.28
2019-01-14T13:03:30.539Z,9.31
2019-01-14T13:06:01.623Z,9.18
2019-01-14T13:08:32.898Z,9.19
2019-01-14T13:11:03.972Z,9.23
2019-01-14T13:13:36.009Z,9.08
2019-01-14T13:16:08.095Z,9.07
2019-01-14T13:18:39.261Z,9.02
2019-01-14T13:21:10.236Z,8.45
2019-01-14T13:23:42.528Z,8.20
2019-01-14T13:26:13.728Z,7.89
2019-01-14T13:28:44.843Z,7.70
2019-01-14T13:31:15.840Z,7.60
2019-01-14T13:33:47.132Z,7.41
2019-01-14T13:36:18.518Z,7.26
2019-01-14T13:38:50.124Z,7.16
2019-01-14T13:41:22.307Z,6.91
2019-01-14T13:43:53.999Z,6.95
2019-01-14T13:46:26.339Z,6.77
2019-01-14T13:48:58.429Z,6.68
2019-01-14T13:51:30.349Z,6.72
2019-01-14T13:54:01.824Z,6.67
2019-01-14T13:56:33.342Z,6.72
2019-01-14T13:59:04.394Z,6.71
2019-01-14T14:01:35.766Z,6.61
2019-01-14T14:04:07.070Z,6.68
2019-01-14T14:06:38.320Z,6.58
2019-01-14T14:09:10.779Z,6.61
2019-01-14T14:11:42.777Z,6.54
2019-01-14T14:14:16.137Z,6.58
2019-01-14T14:16:47.217Z,6.67
2019-01-14T14:19:18.709Z,6.64
2019-01-14T14:21:49.717Z,6.61
2019-01-14T14:24:21.271Z,6.58
2019-01-14T14:26:52.824Z,6.59
2019-01-14T14:29:25.073Z,6.51
2019-01-14T14:31:56.171Z,6.51
2019-01-14T14:34:27.785Z,6.55
2019-01-14T14:36:58.839Z,6.60
2019-01-14T14:39:30.133Z,6.63
2019-01-14T14:42:01.421Z,6.70
2019-01-14T14:44:32.670Z,6.67
2019-01-14T14:47:03.654Z,6.65
2019-01-14T14:49:34.968Z,6.65
2019-01-14T14:52:06.333Z,6.72
2019-01-14T14:54:37.547Z,6.74
2019-01-14T14:57:08.710Z,6.69
2019-01-14T14:59:39.943Z,6.58
2019-01-14T15:02:11.205Z,6.75
2019-01-14T15:04:42.440Z,6.71
2019-01-14T15:07:13.850Z,6.71
2019-01-14T15:09:44.832Z,6.68
2019-01-14T15:12:15.827Z,6.60
2019-01-14T15:14:46.870Z,6.55
2019-01-14T15:17:18.260Z,6.57
2019-01-14T15:19:49.625Z,6.67
2019-01-14T15:22:20.958Z,6.72
2019-01-14T15:24:52.286Z,6.74
2019-01-14T15:27:23.269Z,6.58
2019-01-14T15:29:54.284Z,6.68
2019-01-14T15:32:25.929Z,6.54
2019-01-14T15:34:57.007Z,6.44
2019-01-14T15:37:28.085Z,6.49
2019-01-14T15:40:03.241Z,6.40
2019-01-14T15:42:32.149Z,6.29
2019-01-14T15:45:04.157Z,6.28
2019-01-14T15:47:35.476Z,6.39
2019-01-14T15:50:08.692Z,6.45
2019-01-14T15:52:40.136Z,6.47
2019-01-14T15:55:20.619Z,6.47
2019-01-14T15:57:52.068Z,6.36
2019-01-14T16:00:23.606Z,6.45
2019-01-14T16:02:55.261Z,6.44
2019-01-14T16:05:27.985Z,6.44
2019-01-14T16:07:58.966Z,6.49
2019-01-14T16:10:30.934Z,6.52
2019-01-14T16:13:01.922Z,6.35
2019-01-14T16:15:33.535Z,6.30
2019-01-14T16:18:05.102Z,6.41
2019-01-14T16:20:36.403Z,6.35
2019-01-14T16:23:08.083Z,6.30
2019-01-14T16:25:39.379Z,6.38
2019-01-14T16:28:10.980Z,6.44
2019-01-14T16:30:42.301Z,6.22
2019-01-14T16:33:13.666Z,6.41
2019-01-14T16:35:45.317Z,6.46
2019-01-14T16:38:16.986Z,6.36
2019-01-14T16:40:48.499Z,6.31
2019-01-14T16:43:19.525Z,6.36
2019-01-14T16:45:52.099Z,6.40
2019-01-14T16:48:24.632Z,6.15
2019-01-14T16:50:55.910Z,6.15
2019-01-14T16:53:27.767Z,6.26
2019-01-14T16:55:59.525Z,6.28
2019-01-14T16:58:31.384Z,6.41
2019-01-14T17:01:02.714Z,6.49
2019-01-14T17:03:34.414Z,6.44
2019-01-14T17:06:05.649Z,6.33
2019-01-14T17:08:37.001Z,6.36
2019-01-14T17:11:08.585Z,6.44
2019-01-14T17:13:40.175Z,6.59
2019-01-14T17:16:11.507Z,6.56
2019-01-14T17:18:42.774Z,6.58
2019-01-14T17:21:13.885Z,6.45
2019-01-14T17:23:45.756Z,6.42
2019-01-14T17:26:16.834Z,6.44
2019-01-14T17:28:47.839Z,6.45
2019-01-14T17:31:19.463Z,6.58
2019-01-14T17:33:51.044Z,6.58
2019-01-14T17:36:22.395Z,6.46
2019-01-14T17:38:54.655Z,6.55
2019-01-14T17:41:26.745Z,6.76
2019-01-14T17:43:58.796Z,6.74
2019-01-14T17:46:29.832Z,6.61
2019-01-14T17:49:01.007Z,6.65
2019-01-14T17:51:33.495Z,6.68
2019-01-14T17:54:05.018Z,6.71
2019-01-14T17:56:36.057Z,6.75
2019-01-14T17:59:07.245Z,6.59
2019-01-14T18:01:38.546Z,6.65
2019-01-14T18:04:09.977Z,6.70
2019-01-14T18:06:41.202Z,6.53
2019-01-14T18:09:12.520Z,6.55
2019-01-14T18:11:43.485Z,6.60
2019-01-14T18:14:14.481Z,6.72
2019-01-14T18:16:45.446Z,6.71
2019-01-14T18:19:16.752Z,6.64
2019-01-14T18:21:48.130Z,6.69
2019-01-14T18:24:19.385Z,6.54
2019-01-14T18:26:50.513Z,6.72
2019-01-14T18:29:21.850Z,6.72
2019-01-14T18:31:53.116Z,6.70
2019-01-14T18:34:24.737Z,6.64
2019-01-14T18:36:56.397Z,6.63
2019-01-14T18:39:28.147Z,6.69
2019-01-14T18:41:59.259Z,6.76
2019-01-14T18:44:30.548Z,6.78
2019-01-14T18:47:02.050Z,6.84
2019-01-14T18:49:33.089Z,6.83
2019-01-14T18:52:04.454Z,6.77
2019-01-14T18:54:36.611Z,6.83
2019-01-14T18:57:08.934Z,6.85
2019-01-14T18:59:40.256Z,6.76
2019-01-14T19:02:11.713Z,6.74
2019-01-14T19:04:43.027Z,6.84
2019-01-14T19:07:14.335Z,6.93
2019-01-14T19:09:45.801Z,6.87
2019-01-14T19:12:17.370Z,6.82
2019-01-14T19:14:48.676Z,6.87
2019-01-14T19:17:20.024Z,6.83
2019-01-14T19:19:51.029Z,6.90
2019-01-14T19:22:22.842Z,6.86
2019-01-14T19:24:54.162Z,6.81
2019-01-14T19:27:25.231Z,6.96
2019-01-14T19:29:56.797Z,6.84
2019-01-14T19:32:29.010Z,6.69
2019-01-14T19:35:00.493Z,6.68
2019-01-14T19:37:33.203Z,6.72
2019-01-14T19:40:05.937Z,6.78
2019-01-14T19:42:37.305Z,6.73
2019-01-14T19:45:09.348Z,6.76
2019-01-14T19:47:40.929Z,6.73
2019-01-14T19:50:24.406Z,6.79
2019-01-14T19:52:57.299Z,6.72
2019-01-14T19:55:29.319Z,6.73
2019-01-14T19:58:00.328Z,6.75
2019-01-14T20:00:32.041Z,6.76
2019-01-14T20:03:03.162Z,6.74
2019-01-14T20:05:34.492Z,6.66
2019-01-14T20:08:05.602Z,6.64
2019-01-14T20:10:36.988Z,6.75
2019-01-14T20:13:08.034Z,6.69
2019-01-14T20:15:39.611Z,6.73
2019-01-14T20:18:10.585Z,6.67
2019-01-14T20:20:42.151Z,6.70
2019-01-14T20:23:13.240Z,6.74
2019-01-14T20:25:44.766Z,6.68
2019-01-14T20:28:16.808Z,6.54
2019-01-14T20:30:48.588Z,6.57
2019-01-14T20:33:20.314Z,6.54
2019-01-14T20:35:51.333Z,6.61
2019-01-14T20:38:22.333Z,6.66
2019-01-14T20:40:53.619Z,6.63
2019-01-14T20:43:24.736Z,6.68
2019-01-14T20:45:56.351Z,6.72
2019-01-14T20:48:28.049Z,6.59
2019-01-14T20:50:59.425Z,6.61
2019-01-14T20:53:31.610Z,6.57
2019-01-14T20:56:02.696Z,6.70
2019-01-14T20:58:34.182Z,6.64
2019-01-14T21:01:05.767Z,6.65
2019-01-14T21:03:37.545Z,6.53
2019-01-14T21:06:09.101Z,6.65
2019-01-14T21:08:40.525Z,6.55
2019-01-14T21:11:11.859Z,6.65
2019-01-14T21:13:43.218Z,6.72
2019-01-14T21:16:14.534Z,6.74
2019-01-14T21:18:46.667Z,6.70
2019-01-14T21:21:17.675Z,6.56
2019-01-14T21:23:49.213Z,6.48
2019-01-14T21:26:20.372Z,6.60
2019-01-14T21:28:51.765Z,6.66
2019-01-14T21:31:22.926Z,6.53
2019-01-14T21:33:53.896Z,6.43
2019-01-14T21:36:25.013Z,6.40
2019-01-14T21:38:56.339Z,6.41
2019-01-14T21:41:31.413Z,6.27
2019-01-14T21:44:01.420Z,6.36
2019-01-14T21:46:32.659Z,6.42
2019-01-14T21:49:04.027Z,6.35
2019-01-14T21:51:35.346Z,6.29
2019-01-14T21:54:06.705Z,6.25
2019-01-14T21:56:38.995Z,6.29
2019-01-14T21:59:10.494Z,6.34
2019-01-14T22:01:41.715Z,6.26
2019-01-14T22:04:13.742Z,6.20
2019-01-14T22:06:45.269Z,6.18
2019-01-14T22:09:16.323Z,6.11
2019-01-14T22:11:47.852Z,6.16
2019-01-14T22:14:18.828Z,6.11
2019-01-14T22:16:50.393Z,6.31
2019-01-14T22:19:21.406Z,6.25
2019-01-14T22:21:52.459Z,6.16
2019-01-14T22:24:23.554Z,6.17
2019-01-14T22:26:54.918Z,6.18
2019-01-14T22:29:26.368Z,6.20
2019-01-14T22:31:58.093Z,6.32
2019-01-14T22:34:30.289Z,6.26
2019-01-14T22:37:01.952Z,6.17
2019-01-14T22:39:33.001Z,6.19
2019-01-14T22:42:04.750Z,6.14
2019-01-14T22:44:35.975Z,6.14
2019-01-14T22:47:07.507Z,6.23
2019-01-14T22:49:38.500Z,6.27
2019-01-14T22:52:09.559Z,6.01
2019-01-14T22:54:41.218Z,6.08
2019-01-14T22:57:12.267Z,6.08
2019-01-14T22:59:43.281Z,6.29
2019-01-14T23:02:14.955Z,6.24
2019-01-14T23:04:46.525Z,6.23
2019-01-14T23:07:18.743Z,6.12
2019-01-14T23:09:50.610Z,6.03
2019-01-14T23:12:21.668Z,5.87
2019-01-14T23:14:52.890Z,5.98
2019-01-14T23:17:24.231Z,5.86
2019-01-14T23:19:55.309Z,5.93
2019-01-14T23:22:26.770Z,5.88
2019-01-14T23:24:58.595Z,5.96
2019-01-14T23:27:29.929Z,5.99
2019-01-14T23:30:01.656Z,5.98
2019-01-14T23:32:33.198Z,6.05
2019-01-14T23:35:05.817Z,5.92
2019-01-14T23:37:36.887Z,6.03
2019-01-14T23:40:08.030Z,5.99
2019-01-14T23:42:39.013Z,5.99
2019-01-14T23:45:10.480Z,6.09
2019-01-14T23:47:41.474Z,5.98
2019-01-14T23:50:13.075Z,6.02
2019-01-14T23:52:44.359Z,6.07
2019-01-14T23:55:15.406Z,6.15
2019-01-14T23:57:46.393Z,5.99
